sensor_id;sensor_type;location;lat;lon;timestamp;P1;durP1;ratioP1;P2;durP2;ratioP2
82296;SDS011;71899;51.992;8.648;2024-03-02T00:00:00;9.52;;;7.00;;
82296;SDS011;71899;51.992;8.648;2024-03-02T00:02:26;13.55;;;7.07;;
82296;SDS011;71899;51.992;8.648;2024-03-02T00:04:52;9.75;;;7.10;;
82296;SDS011;71899;51.992;8.648;2024-03-02T00:07:17;12.15;;;7.20;;
82296;SDS011;71899;51.992;8.648;2024-03-02T00:09:43;10.40;;;7.63;;
82296;SDS011;71899;51.992;8.648;2024-03-02T00:12:10;11.70;;;7.22;;
82296;SDS011;71899;51.992;8.648;2024-03-02T00:14:40;10.90;;;8.23;;
82296;SDS011;71899;51.992;8.648;2024-03-02T00:17:11;14.50;;;8.75;;
82296;SDS011;71899;51.992;8.648;2024-03-02T00:19:46;10.85;;;7.05;;
82296;SDS011;71899;51.992;8.648;2024-03-02T00:22:11;13.98;;;7.78;;
82296;SDS011;71899;51.992;8.648;2024-03-02T00:24:36;11.77;;;7.72;;
82296;SDS011;71899;51.992;8.648;2024-03-02T00:27:03;10.85;;;7.45;;
82296;SDS011;71899;51.992;8.648;2024-03-02T00:29:30;10.20;;;6.18;;
82296;SDS011;71899;51.992;8.648;2024-03-02T00:31:55;12.00;;;8.13;;
82296;SDS011;71899;51.992;8.648;2024-03-02T00:34:23;10.30;;;7.30;;
82296;SDS011;71899;51.992;8.648;2024-03-02T00:36:48;10.75;;;6.90;;
82296;SDS011;71899;51.992;8.648;2024-03-02T00:39:14;10.70;;;6.90;;
82296;SDS011;71899;51.992;8.648;2024-03-02T00:41:42;9.05;;;5.93;;
82296;SDS011;71899;51.992;8.648;2024-03-02T00:44:07;10.55;;;6.97;;
82296;SDS011;71899;51.992;8.648;2024-03-02T00:46:36;10.77;;;7.03;;
82296;SDS011;71899;51.992;8.648;2024-03-02T00:49:03;11.68;;;6.57;;
82296;SDS011;71899;51.992;8.648;2024-03-02T00:51:30;12.10;;;7.55;;
82296;SDS011;71899;51.992;8.648;2024-03-02T00:54:04;8.70;;;5.95;;
82296;SDS011;71899;51.992;8.648;2024-03-02T00:56:31;12.52;;;6.47;;
82296;SDS011;71899;51.992;8.648;2024-03-02T00:58:57;9.60;;;5.95;;
82296;SDS011;71899;51.992;8.648;2024-03-02T01:01:23;10.07;;;7.53;;
82296;SDS011;71899;51.992;8.648;2024-03-02T01:03:48;9.07;;;6.07;;
82296;SDS011;71899;51.992;8.648;2024-03-02T01:06:14;9.48;;;6.45;;
82296;SDS011;71899;51.992;8.648;2024-03-02T01:08:43;12.55;;;7.30;;
82296;SDS011;71899;51.992;8.648;2024-03-02T01:11:08;9.70;;;6.72;;
82296;SDS011;71899;51.992;8.648;2024-03-02T01:13:34;11.27;;;6.57;;
82296;SDS011;71899;51.992;8.648;2024-03-02T01:16:00;9.43;;;7.20;;
82296;SDS011;71899;51.992;8.648;2024-03-02T01:18:26;9.70;;;6.43;;
82296;SDS011;71899;51.992;8.648;2024-03-02T01:20:52;10.35;;;6.88;;
82296;SDS011;71899;51.992;8.648;2024-03-02T01:23:20;8.98;;;5.85;;
82296;SDS011;71899;51.992;8.648;2024-03-02T01:25:46;8.50;;;6.18;;
82296;SDS011;71899;51.992;8.648;2024-03-02T01:28:12;10.90;;;6.60;;
82296;SDS011;71899;51.992;8.648;2024-03-02T01:30:38;11.38;;;7.40;;
82296;SDS011;71899;51.992;8.648;2024-03-02T01:33:03;9.75;;;5.90;;
82296;SDS011;71899;51.992;8.648;2024-03-02T01:35:30;10.23;;;6.65;;
82296;SDS011;71899;51.992;8.648;2024-03-02T01:37:56;12.95;;;6.55;;
82296;SDS011;71899;51.992;8.648;2024-03-02T01:40:21;9.68;;;6.85;;
82296;SDS011;71899;51.992;8.648;2024-03-02T01:42:46;9.38;;;6.45;;
82296;SDS011;71899;51.992;8.648;2024-03-02T01:45:12;8.88;;;6.80;;
82296;SDS011;71899;51.992;8.648;2024-03-02T01:47:37;8.60;;;5.85;;
82296;SDS011;71899;51.992;8.648;2024-03-02T01:50:03;12.38;;;7.30;;
82296;SDS011;71899;51.992;8.648;2024-03-02T01:52:28;10.07;;;6.95;;
82296;SDS011;71899;51.992;8.648;2024-03-02T01:54:54;11.55;;;7.43;;
82296;SDS011;71899;51.992;8.648;2024-03-02T01:57:20;11.80;;;7.20;;
82296;SDS011;71899;51.992;8.648;2024-03-02T01:59:46;9.75;;;7.20;;
82296;SDS011;71899;51.992;8.648;2024-03-02T02:02:16;9.57;;;6.35;;
82296;SDS011;71899;51.992;8.648;2024-03-02T02:04:41;10.02;;;7.15;;
82296;SDS011;71899;51.992;8.648;2024-03-02T02:07:07;8.55;;;6.72;;
82296;SDS011;71899;51.992;8.648;2024-03-02T02:09:32;9.50;;;6.63;;
82296;SDS011;71899;51.992;8.648;2024-03-02T02:11:57;11.07;;;6.97;;
82296;SDS011;71899;51.992;8.648;2024-03-02T02:14:23;11.82;;;7.97;;
82296;SDS011;71899;51.992;8.648;2024-03-02T02:16:48;11.70;;;7.28;;
82296;SDS011;71899;51.992;8.648;2024-03-02T02:19:14;9.20;;;5.97;;
82296;SDS011;71899;51.992;8.648;2024-03-02T02:21:42;10.63;;;7.63;;
82296;SDS011;71899;51.992;8.648;2024-03-02T02:24:08;9.85;;;7.07;;
82296;SDS011;71899;51.992;8.648;2024-03-02T02:26:34;9.07;;;6.53;;
82296;SDS011;71899;51.992;8.648;2024-03-02T02:29:00;10.10;;;7.43;;
82296;SDS011;71899;51.992;8.648;2024-03-02T02:31:25;12.82;;;7.15;;
82296;SDS011;71899;51.992;8.648;2024-03-02T02:33:50;10.48;;;7.22;;
82296;SDS011;71899;51.992;8.648;2024-03-02T02:36:16;12.15;;;7.00;;
82296;SDS011;71899;51.992;8.648;2024-03-02T02:38:42;10.80;;;7.35;;
82296;SDS011;71899;51.992;8.648;2024-03-02T02:41:11;11.40;;;7.47;;
82296;SDS011;71899;51.992;8.648;2024-03-02T02:43:37;11.57;;;7.72;;
82296;SDS011;71899;51.992;8.648;2024-03-02T02:46:02;12.45;;;7.50;;
82296;SDS011;71899;51.992;8.648;2024-03-02T02:48:28;10.85;;;7.50;;
82296;SDS011;71899;51.992;8.648;2024-03-02T02:50:53;11.18;;;7.53;;
82296;SDS011;71899;51.992;8.648;2024-03-02T02:53:18;17.60;;;8.23;;
82296;SDS011;71899;51.992;8.648;2024-03-02T02:55:44;9.10;;;7.20;;
82296;SDS011;71899;51.992;8.648;2024-03-02T02:58:09;11.20;;;7.57;;
82296;SDS011;71899;51.992;8.648;2024-03-02T03:00:35;10.50;;;7.25;;
82296;SDS011;71899;51.992;8.648;2024-03-02T03:03:01;10.60;;;6.72;;
82296;SDS011;71899;51.992;8.648;2024-03-02T03:05:27;10.70;;;7.85;;
82296;SDS011;71899;51.992;8.648;2024-03-02T03:07:52;12.13;;;8.73;;
82296;SDS011;71899;51.992;8.648;2024-03-02T03:10:18;13.75;;;8.45;;
82296;SDS011;71899;51.992;8.648;2024-03-02T03:12:43;12.70;;;8.35;;
82296;SDS011;71899;51.992;8.648;2024-03-02T03:15:09;13.43;;;9.20;;
82296;SDS011;71899;51.992;8.648;2024-03-02T03:17:35;10.38;;;7.55;;
82296;SDS011;71899;51.992;8.648;2024-03-02T03:20:02;12.32;;;7.65;;
82296;SDS011;71899;51.992;8.648;2024-03-02T03:22:29;11.43;;;7.50;;
82296;SDS011;71899;51.992;8.648;2024-03-02T03:24:54;13.75;;;8.43;;
82296;SDS011;71899;51.992;8.648;2024-03-02T03:27:20;12.25;;;8.05;;
82296;SDS011;71899;51.992;8.648;2024-03-02T03:29:45;11.55;;;8.80;;
82296;SDS011;71899;51.992;8.648;2024-03-02T03:32:10;12.88;;;8.20;;
82296;SDS011;71899;51.992;8.648;2024-03-02T03:34:36;12.55;;;8.50;;
82296;SDS011;71899;51.992;8.648;2024-03-02T03:37:01;13.70;;;8.95;;
82296;SDS011;71899;51.992;8.648;2024-03-02T03:39:27;13.25;;;8.57;;
82296;SDS011;71899;51.992;8.648;2024-03-02T03:41:53;17.13;;;7.80;;
82296;SDS011;71899;51.992;8.648;2024-03-02T03:44:19;12.50;;;7.90;;
82296;SDS011;71899;51.992;8.648;2024-03-02T03:46:44;14.65;;;9.57;;
82296;SDS011;71899;51.992;8.648;2024-03-02T03:49:09;12.75;;;8.30;;
82296;SDS011;71899;51.992;8.648;2024-03-02T03:51:34;13.60;;;8.55;;
82296;SDS011;71899;51.992;8.648;2024-03-02T03:54:00;13.15;;;8.38;;
82296;SDS011;71899;51.992;8.648;2024-03-02T03:56:26;14.18;;;8.93;;
82296;SDS011;71899;51.992;8.648;2024-03-02T03:58:51;16.95;;;8.88;;
82296;SDS011;71899;51.992;8.648;2024-03-02T04:01:17;16.48;;;9.27;;
82296;SDS011;71899;51.992;8.648;2024-03-02T04:03:43;16.17;;;9.68;;
82296;SDS011;71899;51.992;8.648;2024-03-02T04:06:08;14.85;;;8.52;;
82296;SDS011;71899;51.992;8.648;2024-03-02T04:08:33;15.40;;;8.80;;
82296;SDS011;71899;51.992;8.648;2024-03-02T04:10:59;16.08;;;9.32;;
82296;SDS011;71899;51.992;8.648;2024-03-02T04:13:24;13.27;;;8.25;;
82296;SDS011;71899;51.992;8.648;2024-03-02T04:15:49;15.57;;;9.27;;
82296;SDS011;71899;51.992;8.648;2024-03-02T04:18:14;17.23;;;8.88;;
82296;SDS011;71899;51.992;8.648;2024-03-02T04:20:40;14.30;;;9.52;;
82296;SDS011;71899;51.992;8.648;2024-03-02T04:23:05;14.18;;;9.02;;
82296;SDS011;71899;51.992;8.648;2024-03-02T04:25:33;14.85;;;9.75;;
82296;SDS011;71899;51.992;8.648;2024-03-02T04:28:00;15.32;;;8.95;;
82296;SDS011;71899;51.992;8.648;2024-03-02T04:30:25;14.82;;;9.90;;
82296;SDS011;71899;51.992;8.648;2024-03-02T04:32:51;14.05;;;9.32;;
82296;SDS011;71899;51.992;8.648;2024-03-02T04:35:17;18.98;;;11.00;;
82296;SDS011;71899;51.992;8.648;2024-03-02T04:37:42;16.05;;;11.02;;
82296;SDS011;71899;51.992;8.648;2024-03-02T04:40:07;13.70;;;9.02;;
82296;SDS011;71899;51.992;8.648;2024-03-02T04:42:34;15.70;;;9.50;;
82296;SDS011;71899;51.992;8.648;2024-03-02T04:45:00;16.08;;;10.15;;
82296;SDS011;71899;51.992;8.648;2024-03-02T04:47:25;14.95;;;8.27;;
82296;SDS011;71899;51.992;8.648;2024-03-02T04:49:51;16.58;;;8.82;;
82296;SDS011;71899;51.992;8.648;2024-03-02T04:52:16;15.82;;;8.80;;
82296;SDS011;71899;51.992;8.648;2024-03-02T04:54:42;14.02;;;8.23;;
82296;SDS011;71899;51.992;8.648;2024-03-02T04:57:26;17.85;;;10.18;;
82296;SDS011;71899;51.992;8.648;2024-03-02T04:59:51;15.05;;;9.45;;
82296;SDS011;71899;51.992;8.648;2024-03-02T05:02:16;13.57;;;9.05;;
82296;SDS011;71899;51.992;8.648;2024-03-02T05:04:42;15.20;;;9.07;;
82296;SDS011;71899;51.992;8.648;2024-03-02T05:07:07;20.42;;;9.68;;
82296;SDS011;71899;51.992;8.648;2024-03-02T05:09:32;19.00;;;10.70;;
82296;SDS011;71899;51.992;8.648;2024-03-02T05:11:58;16.58;;;10.18;;
82296;SDS011;71899;51.992;8.648;2024-03-02T05:14:54;14.40;;;9.20;;
82296;SDS011;71899;51.992;8.648;2024-03-02T05:17:19;18.35;;;9.48;;
82296;SDS011;71899;51.992;8.648;2024-03-02T05:19:45;15.15;;;9.95;;
82296;SDS011;71899;51.992;8.648;2024-03-02T05:22:10;19.17;;;9.80;;
82296;SDS011;71899;51.992;8.648;2024-03-02T05:24:35;18.42;;;10.75;;
82296;SDS011;71899;51.992;8.648;2024-03-02T05:27:01;16.88;;;9.68;;
82296;SDS011;71899;51.992;8.648;2024-03-02T05:29:27;16.30;;;10.57;;
82296;SDS011;71899;51.992;8.648;2024-03-02T05:31:52;23.23;;;10.30;;
82296;SDS011;71899;51.992;8.648;2024-03-02T05:34:17;19.00;;;11.10;;
82296;SDS011;71899;51.992;8.648;2024-03-02T05:36:43;18.67;;;11.65;;
82296;SDS011;71899;51.992;8.648;2024-03-02T05:39:09;18.15;;;10.13;;
82296;SDS011;71899;51.992;8.648;2024-03-02T05:41:35;18.15;;;11.00;;
82296;SDS011;71899;51.992;8.648;2024-03-02T05:44:01;18.60;;;10.55;;
82296;SDS011;71899;51.992;8.648;2024-03-02T05:46:26;20.17;;;11.48;;
82296;SDS011;71899;51.992;8.648;2024-03-02T05:48:52;17.90;;;10.90;;
82296;SDS011;71899;51.992;8.648;2024-03-02T05:51:17;21.10;;;12.18;;
82296;SDS011;71899;51.992;8.648;2024-03-02T05:53:43;19.52;;;11.23;;
82296;SDS011;71899;51.992;8.648;2024-03-02T05:56:08;22.65;;;12.77;;
82296;SDS011;71899;51.992;8.648;2024-03-02T05:58:34;22.77;;;12.13;;
82296;SDS011;71899;51.992;8.648;2024-03-02T06:01:28;18.90;;;11.43;;
82296;SDS011;71899;51.992;8.648;2024-03-02T06:03:57;16.48;;;10.27;;
82296;SDS011;71899;51.992;8.648;2024-03-02T06:06:23;21.90;;;12.15;;
82296;SDS011;71899;51.992;8.648;2024-03-02T06:08:49;20.58;;;11.52;;
82296;SDS011;71899;51.992;8.648;2024-03-02T06:11:15;17.25;;;11.07;;
82296;SDS011;71899;51.992;8.648;2024-03-02T06:13:40;17.33;;;11.32;;
82296;SDS011;71899;51.992;8.648;2024-03-02T06:16:05;17.75;;;10.35;;
82296;SDS011;71899;51.992;8.648;2024-03-02T06:18:31;18.95;;;10.60;;
82296;SDS011;71899;51.992;8.648;2024-03-02T06:20:56;16.98;;;10.38;;
82296;SDS011;71899;51.992;8.648;2024-03-02T06:23:22;19.10;;;11.00;;
82296;SDS011;71899;51.992;8.648;2024-03-02T06:25:47;19.77;;;10.63;;
82296;SDS011;71899;51.992;8.648;2024-03-02T06:28:12;19.02;;;10.27;;
82296;SDS011;71899;51.992;8.648;2024-03-02T06:30:40;15.75;;;10.55;;
82296;SDS011;71899;51.992;8.648;2024-03-02T06:33:06;19.85;;;10.93;;
82296;SDS011;71899;51.992;8.648;2024-03-02T06:35:31;17.30;;;9.35;;
82296;SDS011;71899;51.992;8.648;2024-03-02T06:37:57;19.33;;;10.73;;
82296;SDS011;71899;51.992;8.648;2024-03-02T06:40:22;15.85;;;11.05;;
82296;SDS011;71899;51.992;8.648;2024-03-02T06:42:47;22.30;;;10.27;;
82296;SDS011;71899;51.992;8.648;2024-03-02T06:45:13;20.70;;;10.55;;
82296;SDS011;71899;51.992;8.648;2024-03-02T06:47:38;15.52;;;9.02;;
82296;SDS011;71899;51.992;8.648;2024-03-02T06:50:03;22.20;;;10.45;;
82296;SDS011;71899;51.992;8.648;2024-03-02T06:52:29;17.73;;;9.65;;
82296;SDS011;71899;51.992;8.648;2024-03-02T06:54:54;12.75;;;8.07;;
82296;SDS011;71899;51.992;8.648;2024-03-02T06:57:20;15.00;;;9.43;;
82296;SDS011;71899;51.992;8.648;2024-03-02T06:59:45;14.15;;;9.13;;
82296;SDS011;71899;51.992;8.648;2024-03-02T07:02:11;17.33;;;8.88;;
82296;SDS011;71899;51.992;8.648;2024-03-02T07:04:37;16.88;;;9.23;;
82296;SDS011;71899;51.992;8.648;2024-03-02T07:07:02;16.02;;;9.25;;
82296;SDS011;71899;51.992;8.648;2024-03-02T07:09:28;15.95;;;10.23;;
82296;SDS011;71899;51.992;8.648;2024-03-02T07:11:53;16.77;;;9.93;;
82296;SDS011;71899;51.992;8.648;2024-03-02T07:14:18;16.10;;;9.48;;
82296;SDS011;71899;51.992;8.648;2024-03-02T07:16:44;14.07;;;9.52;;
82296;SDS011;71899;51.992;8.648;2024-03-02T07:19:09;20.42;;;11.68;;
82296;SDS011;71899;51.992;8.648;2024-03-02T07:21:34;13.30;;;8.90;;
82296;SDS011;71899;51.992;8.648;2024-03-02T07:24:00;19.65;;;10.82;;
82296;SDS011;71899;51.992;8.648;2024-03-02T07:26:28;15.88;;;9.63;;
82296;SDS011;71899;51.992;8.648;2024-03-02T07:28:55;16.27;;;10.68;;
82296;SDS011;71899;51.992;8.648;2024-03-02T07:31:20;18.63;;;10.60;;
82296;SDS011;71899;51.992;8.648;2024-03-02T07:33:45;17.95;;;10.77;;
82296;SDS011;71899;51.992;8.648;2024-03-02T07:36:11;21.77;;;10.70;;
82296;SDS011;71899;51.992;8.648;2024-03-02T07:38:37;14.77;;;9.57;;
82296;SDS011;71899;51.992;8.648;2024-03-02T07:41:02;17.17;;;9.77;;
82296;SDS011;71899;51.992;8.648;2024-03-02T07:43:29;18.90;;;10.13;;
82296;SDS011;71899;51.992;8.648;2024-03-02T07:45:55;18.98;;;10.07;;
82296;SDS011;71899;51.992;8.648;2024-03-02T07:48:21;17.48;;;10.18;;
82296;SDS011;71899;51.992;8.648;2024-03-02T07:50:46;14.38;;;8.98;;
82296;SDS011;71899;51.992;8.648;2024-03-02T07:53:11;16.33;;;9.70;;
82296;SDS011;71899;51.992;8.648;2024-03-02T07:55:37;17.52;;;9.32;;
82296;SDS011;71899;51.992;8.648;2024-03-02T07:58:02;15.90;;;9.43;;
82296;SDS011;71899;51.992;8.648;2024-03-02T08:00:27;13.50;;;8.55;;
82296;SDS011;71899;51.992;8.648;2024-03-02T08:02:53;15.32;;;8.40;;
82296;SDS011;71899;51.992;8.648;2024-03-02T08:05:19;12.70;;;7.88;;
82296;SDS011;71899;51.992;8.648;2024-03-02T08:07:45;12.18;;;8.57;;
82296;SDS011;71899;51.992;8.648;2024-03-02T08:10:11;13.55;;;8.82;;
82296;SDS011;71899;51.992;8.648;2024-03-02T08:12:36;16.05;;;8.95;;
82296;SDS011;71899;51.992;8.648;2024-03-02T08:15:02;15.63;;;7.38;;
82296;SDS011;71899;51.992;8.648;2024-03-02T08:17:27;13.13;;;8.15;;
82296;SDS011;71899;51.992;8.648;2024-03-02T08:19:53;12.55;;;8.50;;
82296;SDS011;71899;51.992;8.648;2024-03-02T08:22:19;12.00;;;7.70;;
82296;SDS011;71899;51.992;8.648;2024-03-02T08:24:44;17.15;;;8.20;;
82296;SDS011;71899;51.992;8.648;2024-03-02T08:27:10;13.27;;;8.98;;
82296;SDS011;71899;51.992;8.648;2024-03-02T08:29:35;17.10;;;8.23;;
82296;SDS011;71899;51.992;8.648;2024-03-02T08:32:00;13.35;;;8.35;;
82296;SDS011;71899;51.992;8.648;2024-03-02T08:34:26;13.93;;;8.00;;
82296;SDS011;71899;51.992;8.648;2024-03-02T08:36:51;13.00;;;7.93;;
82296;SDS011;71899;51.992;8.648;2024-03-02T08:39:17;13.38;;;7.55;;
82296;SDS011;71899;51.992;8.648;2024-03-02T08:41:45;11.95;;;7.40;;
82296;SDS011;71899;51.992;8.648;2024-03-02T08:44:11;14.43;;;8.70;;
82296;SDS011;71899;51.992;8.648;2024-03-02T08:46:37;10.98;;;7.20;;
82296;SDS011;71899;51.992;8.648;2024-03-02T08:49:02;13.10;;;7.85;;
82296;SDS011;71899;51.992;8.648;2024-03-02T08:51:28;11.73;;;7.63;;
82296;SDS011;71899;51.992;8.648;2024-03-02T08:53:53;10.07;;;6.75;;
82296;SDS011;71899;51.992;8.648;2024-03-02T08:56:18;11.75;;;7.47;;
82296;SDS011;71899;51.992;8.648;2024-03-02T08:58:45;13.10;;;8.00;;
82296;SDS011;71899;51.992;8.648;2024-03-02T09:01:11;11.13;;;7.95;;
82296;SDS011;71899;51.992;8.648;2024-03-02T09:03:36;10.48;;;7.05;;
82296;SDS011;71899;51.992;8.648;2024-03-02T09:06:02;8.38;;;5.88;;
82296;SDS011;71899;51.992;8.648;2024-03-02T09:08:28;9.80;;;6.18;;
82296;SDS011;71899;51.992;8.648;2024-03-02T09:10:54;8.90;;;6.32;;
82296;SDS011;71899;51.992;8.648;2024-03-02T09:13:20;8.30;;;5.47;;
82296;SDS011;71899;51.992;8.648;2024-03-02T09:15:46;7.40;;;5.40;;
82296;SDS011;71899;51.992;8.648;2024-03-02T09:18:11;9.10;;;5.55;;
82296;SDS011;71899;51.992;8.648;2024-03-02T09:20:36;11.82;;;5.65;;
82296;SDS011;71899;51.992;8.648;2024-03-02T09:23:02;8.52;;;5.25;;
82296;SDS011;71899;51.992;8.648;2024-03-02T09:25:27;7.95;;;4.75;;
82296;SDS011;71899;51.992;8.648;2024-03-02T09:27:53;12.48;;;5.40;;
82296;SDS011;71899;51.992;8.648;2024-03-02T09:30:18;7.18;;;5.00;;
82296;SDS011;71899;51.992;8.648;2024-03-02T09:32:43;7.97;;;4.88;;
82296;SDS011;71899;51.992;8.648;2024-03-02T09:35:09;11.07;;;4.75;;
82296;SDS011;71899;51.992;8.648;2024-03-02T09:37:34;7.85;;;5.38;;
82296;SDS011;71899;51.992;8.648;2024-03-02T09:40:00;7.20;;;4.80;;
82296;SDS011;71899;51.992;8.648;2024-03-02T09:42:26;8.18;;;4.45;;
82296;SDS011;71899;51.992;8.648;2024-03-02T09:44:52;7.72;;;4.93;;
82296;SDS011;71899;51.992;8.648;2024-03-02T09:47:17;6.15;;;3.80;;
82296;SDS011;71899;51.992;8.648;2024-03-02T09:49:43;5.93;;;3.95;;
82296;SDS011;71899;51.992;8.648;2024-03-02T09:52:08;8.75;;;4.85;;
82296;SDS011;71899;51.992;8.648;2024-03-02T09:54:35;7.70;;;4.90;;
82296;SDS011;71899;51.992;8.648;2024-03-02T09:57:00;7.22;;;4.53;;
82296;SDS011;71899;51.992;8.648;2024-03-02T09:59:27;9.55;;;5.35;;
82296;SDS011;71899;51.992;8.648;2024-03-02T10:01:57;11.00;;;6.22;;
82296;SDS011;71899;51.992;8.648;2024-03-02T10:04:27;10.73;;;5.93;;
82296;SDS011;71899;51.992;8.648;2024-03-02T10:09:42;8.15;;;5.10;;
82296;SDS011;71899;51.992;8.648;2024-03-02T10:12:09;10.02;;;4.95;;
82296;SDS011;71899;51.992;8.648;2024-03-02T10:14:39;13.68;;;6.13;;
82296;SDS011;71899;51.992;8.648;2024-03-02T10:17:09;10.75;;;5.47;;
82296;SDS011;71899;51.992;8.648;2024-03-02T10:19:36;8.50;;;5.05;;
82296;SDS011;71899;51.992;8.648;2024-03-02T10:22:03;8.57;;;5.35;;
82296;SDS011;71899;51.992;8.648;2024-03-02T10:24:42;8.98;;;5.60;;
82296;SDS011;71899;51.992;8.648;2024-03-02T10:27:15;7.60;;;5.00;;
82296;SDS011;71899;51.992;8.648;2024-03-02T10:29:51;7.15;;;4.85;;
82296;SDS011;71899;51.992;8.648;2024-03-02T10:32:16;7.00;;;4.70;;
82296;SDS011;71899;51.992;8.648;2024-03-02T10:34:42;8.18;;;4.95;;
82296;SDS011;71899;51.992;8.648;2024-03-02T10:37:12;9.02;;;5.88;;
82296;SDS011;71899;51.992;8.648;2024-03-02T10:39:39;8.48;;;4.95;;
82296;SDS011;71899;51.992;8.648;2024-03-02T10:42:06;9.48;;;5.25;;
82296;SDS011;71899;51.992;8.648;2024-03-02T10:44:32;7.35;;;4.72;;
82296;SDS011;71899;51.992;8.648;2024-03-02T10:47:01;9.95;;;5.60;;
82296;SDS011;71899;51.992;8.648;2024-03-02T10:49:29;8.40;;;4.78;;
82296;SDS011;71899;51.992;8.648;2024-03-02T10:51:56;6.65;;;4.75;;
82296;SDS011;71899;51.992;8.648;2024-03-02T10:54:25;5.60;;;3.88;;
82296;SDS011;71899;51.992;8.648;2024-03-02T10:57:01;7.35;;;4.78;;
82296;SDS011;71899;51.992;8.648;2024-03-02T10:59:33;8.57;;;4.28;;
82296;SDS011;71899;51.992;8.648;2024-03-02T11:02:00;6.97;;;3.92;;
82296;SDS011;71899;51.992;8.648;2024-03-02T11:04:28;10.55;;;5.32;;
82296;SDS011;71899;51.992;8.648;2024-03-02T11:07:02;7.30;;;4.88;;
82296;SDS011;71899;51.992;8.648;2024-03-02T11:09:29;7.53;;;4.40;;
82296;SDS011;71899;51.992;8.648;2024-03-02T11:14:56;8.45;;;5.30;;
82296;SDS011;71899;51.992;8.648;2024-03-02T11:17:23;7.47;;;4.97;;
82296;SDS011;71899;51.992;8.648;2024-03-02T11:19:50;6.45;;;4.05;;
82296;SDS011;71899;51.992;8.648;2024-03-02T11:22:16;6.35;;;3.60;;
82296;SDS011;71899;51.992;8.648;2024-03-02T11:24:48;5.07;;;2.90;;
82296;SDS011;71899;51.992;8.648;2024-03-02T11:27:14;4.93;;;3.38;;
82296;SDS011;71899;51.992;8.648;2024-03-02T11:32:57;6.60;;;4.72;;
82296;SDS011;71899;51.992;8.648;2024-03-02T11:35:23;7.60;;;5.07;;
82296;SDS011;71899;51.992;8.648;2024-03-02T11:37:50;9.50;;;4.57;;
82296;SDS011;71899;51.992;8.648;2024-03-02T11:40:21;8.27;;;5.15;;
82296;SDS011;71899;51.992;8.648;2024-03-02T11:42:47;5.88;;;4.28;;
82296;SDS011;71899;51.992;8.648;2024-03-02T11:45:14;8.93;;;4.47;;
82296;SDS011;71899;51.992;8.648;2024-03-02T11:47:45;7.93;;;4.20;;
82296;SDS011;71899;51.992;8.648;2024-03-02T11:50:15;6.82;;;5.03;;
82296;SDS011;71899;51.992;8.648;2024-03-02T11:52:40;6.85;;;4.70;;
82296;SDS011;71899;51.992;8.648;2024-03-02T11:55:07;7.60;;;5.03;;
82296;SDS011;71899;51.992;8.648;2024-03-02T11:57:34;6.53;;;4.63;;
82296;SDS011;71899;51.992;8.648;2024-03-02T12:00:00;6.85;;;4.15;;
82296;SDS011;71899;51.992;8.648;2024-03-02T12:02:30;7.38;;;4.28;;
82296;SDS011;71899;51.992;8.648;2024-03-02T12:04:56;7.38;;;4.88;;
82296;SDS011;71899;51.992;8.648;2024-03-02T12:07:22;6.60;;;4.57;;
82296;SDS011;71899;51.992;8.648;2024-03-02T12:10:00;7.38;;;4.63;;
82296;SDS011;71899;51.992;8.648;2024-03-02T12:12:27;5.28;;;3.90;;
82296;SDS011;71899;51.992;8.648;2024-03-02T12:14:53;6.47;;;4.45;;
82296;SDS011;71899;51.992;8.648;2024-03-02T12:17:22;5.75;;;4.18;;
82296;SDS011;71899;51.992;8.648;2024-03-02T12:19:48;5.80;;;3.25;;
82296;SDS011;71899;51.992;8.648;2024-03-02T12:22:13;5.88;;;3.47;;
82296;SDS011;71899;51.992;8.648;2024-03-02T12:24:40;7.00;;;4.13;;
82296;SDS011;71899;51.992;8.648;2024-03-02T12:27:06;5.68;;;3.63;;
82296;SDS011;71899;51.992;8.648;2024-03-02T12:29:32;5.78;;;3.50;;
82296;SDS011;71899;51.992;8.648;2024-03-02T12:31:57;5.38;;;3.55;;
82296;SDS011;71899;51.992;8.648;2024-03-02T12:34:23;7.28;;;3.90;;
82296;SDS011;71899;51.992;8.648;2024-03-02T12:36:48;3.75;;;3.08;;
82296;SDS011;71899;51.992;8.648;2024-03-02T12:39:17;4.10;;;2.80;;
82296;SDS011;71899;51.992;8.648;2024-03-02T12:41:48;3.88;;;2.80;;
82296;SDS011;71899;51.992;8.648;2024-03-02T12:44:15;4.90;;;2.92;;
82296;SDS011;71899;51.992;8.648;2024-03-02T12:46:41;4.75;;;3.22;;
82296;SDS011;71899;51.992;8.648;2024-03-02T12:49:07;7.07;;;4.05;;
82296;SDS011;71899;51.992;8.648;2024-03-02T12:51:35;4.55;;;3.13;;
82296;SDS011;71899;51.992;8.648;2024-03-02T12:54:00;4.05;;;2.92;;
82296;SDS011;71899;51.992;8.648;2024-03-02T12:56:26;4.63;;;3.45;;
82296;SDS011;71899;51.992;8.648;2024-03-02T12:58:55;5.55;;;3.30;;
82296;SDS011;71899;51.992;8.648;2024-03-02T13:01:21;5.03;;;3.83;;
82296;SDS011;71899;51.992;8.648;2024-03-02T13:03:48;5.10;;;2.97;;
82296;SDS011;71899;51.992;8.648;2024-03-02T13:06:16;5.75;;;3.97;;
82296;SDS011;71899;51.992;8.648;2024-03-02T13:08:42;7.85;;;3.38;;
82296;SDS011;71899;51.992;8.648;2024-03-02T13:11:07;5.05;;;3.33;;
82296;SDS011;71899;51.992;8.648;2024-03-02T13:13:33;4.50;;;3.13;;
82296;SDS011;71899;51.992;8.648;2024-03-02T13:15:59;5.05;;;2.90;;
82296;SDS011;71899;51.992;8.648;2024-03-02T13:18:25;4.30;;;2.67;;
82296;SDS011;71899;51.992;8.648;2024-03-02T13:20:51;4.78;;;3.53;;
82296;SDS011;71899;51.992;8.648;2024-03-02T13:23:16;3.60;;;2.70;;
82296;SDS011;71899;51.992;8.648;2024-03-02T13:25:42;4.60;;;2.75;;
82296;SDS011;71899;51.992;8.648;2024-03-02T13:28:08;4.25;;;3.08;;
82296;SDS011;71899;51.992;8.648;2024-03-02T13:30:34;3.53;;;2.47;;
82296;SDS011;71899;51.992;8.648;2024-03-02T13:32:59;4.57;;;2.50;;
82296;SDS011;71899;51.992;8.648;2024-03-02T13:35:24;2.78;;;2.15;;
82296;SDS011;71899;51.992;8.648;2024-03-02T13:37:49;3.70;;;2.33;;
82296;SDS011;71899;51.992;8.648;2024-03-02T13:40:15;3.35;;;2.08;;
82296;SDS011;71899;51.992;8.648;2024-03-02T13:42:45;4.22;;;2.47;;
82296;SDS011;71899;51.992;8.648;2024-03-02T13:45:11;3.85;;;2.47;;
82296;SDS011;71899;51.992;8.648;2024-03-02T13:47:37;4.80;;;2.80;;
82296;SDS011;71899;51.992;8.648;2024-03-02T13:50:02;3.22;;;2.42;;
82296;SDS011;71899;51.992;8.648;2024-03-02T13:52:30;2.78;;;1.80;;
82296;SDS011;71899;51.992;8.648;2024-03-02T13:54:55;4.07;;;1.52;;
82296;SDS011;71899;51.992;8.648;2024-03-02T13:57:20;5.78;;;1.50;;
82296;SDS011;71899;51.992;8.648;2024-03-02T13:59:45;1.67;;;1.20;;
82296;SDS011;71899;51.992;8.648;2024-03-02T14:02:11;3.03;;;2.00;;
82296;SDS011;71899;51.992;8.648;2024-03-02T14:04:37;5.22;;;2.17;;
82296;SDS011;71899;51.992;8.648;2024-03-02T14:07:03;3.88;;;2.22;;
82296;SDS011;71899;51.992;8.648;2024-03-02T14:09:29;3.90;;;2.10;;
82296;SDS011;71899;51.992;8.648;2024-03-02T14:11:55;2.78;;;1.80;;
82296;SDS011;71899;51.992;8.648;2024-03-02T14:14:21;4.20;;;2.10;;
82296;SDS011;71899;51.992;8.648;2024-03-02T14:16:47;3.25;;;1.77;;
82296;SDS011;71899;51.992;8.648;2024-03-02T14:19:12;3.28;;;1.77;;
82296;SDS011;71899;51.992;8.648;2024-03-02T14:21:38;2.40;;;1.70;;
82296;SDS011;71899;51.992;8.648;2024-03-02T14:24:04;4.65;;;1.90;;
82296;SDS011;71899;51.992;8.648;2024-03-02T14:26:31;3.90;;;2.10;;
82296;SDS011;71899;51.992;8.648;2024-03-02T14:28:58;4.78;;;1.98;;
82296;SDS011;71899;51.992;8.648;2024-03-02T14:31:23;3.40;;;1.30;;
82296;SDS011;71899;51.992;8.648;2024-03-02T14:33:49;3.50;;;1.80;;
82296;SDS011;71899;51.992;8.648;2024-03-02T14:36:14;3.55;;;2.00;;
82296;SDS011;71899;51.992;8.648;2024-03-02T14:38:39;2.13;;;1.33;;
82296;SDS011;71899;51.992;8.648;2024-03-02T14:41:05;1.63;;;1.23;;